createdAt,value
2022-11-28T00:01:37.791Z,80.25
2022-11-28T00:04:09.695Z,80.27
2022-11-28T00:06:39.107Z,79.99
2022-11-28T00:09:09.255Z,80.47
2022-11-28T00:11:37.226Z,79.62
2022-11-28T00:14:05.495Z,80.23
2022-11-28T00:16:34.818Z,80.51
2022-11-28T00:19:03.612Z,80.03
2022-11-28T00:21:32.118Z,80.35
2022-11-28T00:24:00.793Z,80.05
2022-11-28T00:26:31.290Z,79.61
2022-11-28T00:29:00.187Z,79.64
2022-11-28T00:31:33.132Z,79.20
2022-11-28T00:34:03.002Z,79.72
2022-11-28T00:36:31.656Z,80.45
2022-11-28T00:38:59.489Z,80.48
2022-11-28T00:41:30.193Z,80.37
2022-11-28T00:43:58.845Z,80.49
2022-11-28T00:46:27.072Z,80.60
2022-11-28T00:48:54.937Z,80.91
2022-11-28T00:51:26.670Z,80.64
2022-11-28T00:53:56.264Z,80.52
2022-11-28T00:56:26.268Z,81.09
2022-11-28T00:58:54.522Z,80.52
2022-11-28T01:01:24.484Z,80.21
2022-11-28T01:03:54.158Z,80.51
2022-11-28T01:06:24.927Z,80.29
2022-11-28T01:08:53.187Z,80.58
2022-11-28T01:11:21.785Z,80.32
2022-11-28T01:13:49.814Z,79.79
2022-11-28T01:16:20.540Z,79.97
2022-11-28T01:18:48.449Z,79.69
2022-11-28T01:21:16.698Z,80.16
2022-11-28T01:23:46.068Z,80.01
2022-11-28T01:26:18.774Z,79.90
2022-11-28T01:28:47.106Z,79.69
2022-11-28T01:31:17.185Z,79.39
2022-11-28T01:33:45.722Z,79.87
2022-11-28T01:36:15.176Z,79.53
2022-11-28T01:38:45.037Z,79.82
2022-11-28T01:41:13.402Z,81.05
2022-11-28T01:44:07.708Z,81.81
2022-11-28T01:46:37.075Z,82.05
2022-11-28T01:49:16.605Z,82.50
2022-11-28T01:51:48.865Z,82.37
2022-11-28T01:54:21.562Z,82.83
2022-11-28T01:56:54.033Z,82.74
2022-11-28T01:59:27.515Z,83.03
2022-11-28T02:01:55.654Z,83.03
2022-11-28T02:04:26.927Z,82.26
2022-11-28T02:06:55.459Z,82.12
2022-11-28T02:09:24.664Z,82.32
2022-11-28T02:12:12.399Z,82.39
2022-11-28T02:15:07.740Z,82.09
2022-11-28T02:17:47.508Z,82.12
2022-11-28T02:20:36.954Z,81.67
2022-11-28T02:23:14.441Z,82.18
2022-11-28T02:26:06.566Z,82.01
2022-11-28T02:28:59.057Z,82.14
2022-11-28T02:31:43.925Z,81.48
2022-11-28T02:34:20.674Z,81.65
2022-11-28T02:36:54.021Z,81.85
2022-11-28T02:39:31.481Z,81.76
2022-11-28T02:42:08.216Z,81.75
2022-11-28T02:44:44.471Z,81.67
2022-11-28T02:47:19.882Z,81.61
2022-11-28T02:49:55.888Z,81.46
2022-11-28T02:52:28.936Z,81.38
2022-11-28T02:54:56.883Z,81.37
2022-11-28T02:57:30.187Z,81.15
2022-11-28T02:59:58.075Z,81.18
2022-11-28T03:02:29.046Z,81.12
2022-11-28T03:05:08.718Z,81.04
2022-11-28T03:08:01.804Z,80.64
2022-11-28T03:10:36.750Z,80.97
2022-11-28T03:13:11.198Z,81.24
2022-11-28T03:15:46.408Z,81.33
2022-11-28T03:18:21.386Z,81.24
2022-11-28T03:20:56.309Z,80.94
2022-11-28T03:23:31.523Z,81.08
2022-11-28T03:26:02.779Z,81.21
2022-11-28T03:28:38.169Z,81.39
2022-11-28T03:31:14.273Z,81.48
2022-11-28T03:33:46.548Z,81.19
2022-11-28T03:36:20.497Z,80.92
2022-11-28T03:38:51.675Z,80.85
2022-11-28T03:41:23.174Z,80.51
2022-11-28T03:43:54.679Z,80.30
2022-11-28T03:46:27.246Z,80.11
2022-11-28T03:48:59.614Z,80.12
2022-11-28T03:51:33.714Z,79.94
2022-11-28T03:54:09.351Z,80.10
2022-11-28T03:56:41.975Z,79.74
2022-11-28T03:59:14.441Z,78.97
2022-11-28T04:01:53.883Z,79.16
2022-11-28T04:04:29.270Z,80.00
2022-11-28T04:07:01.536Z,80.35
2022-11-28T04:09:42.335Z,80.71
2022-11-28T04:12:20.642Z,80.55
2022-11-28T04:14:53.949Z,80.35
2022-11-28T04:17:31.900Z,80.26
2022-11-28T04:20:07.036Z,81.01
2022-11-28T04:22:43.645Z,80.46
2022-11-28T04:25:15.134Z,80.47
2022-11-28T04:27:47.568Z,80.39
2022-11-28T04:30:15.944Z,80.47
2022-11-28T04:32:49.130Z,80.01
2022-11-28T04:35:22.832Z,80.18
2022-11-28T04:37:53.817Z,79.61
2022-11-28T04:40:24.853Z,79.77
2022-11-28T04:42:56.923Z,79.43
2022-11-28T04:45:30.019Z,79.69
2022-11-28T04:47:58.428Z,78.81
2022-11-28T04:50:32.137Z,79.40
2022-11-28T04:53:11.567Z,78.78
2022-11-28T04:55:44.810Z,78.43
2022-11-28T04:58:17.252Z,79.04
2022-11-28T05:00:46.652Z,78.78
2022-11-28T05:03:14.732Z,78.57
2022-11-28T05:05:45.652Z,78.05
2022-11-28T05:08:15.010Z,78.60
2022-11-28T05:10:43.139Z,78.59
2022-11-28T05:13:11.157Z,78.59
2022-11-28T05:15:39.205Z,78.88
2022-11-28T05:18:07.608Z,78.89
2022-11-28T05:20:35.906Z,78.42
2022-11-28T05:23:03.695Z,79.00
2022-11-28T05:25:32.999Z,78.45
2022-11-28T05:28:00.841Z,78.16
2022-11-28T05:30:28.650Z,78.34
2022-11-28T05:32:56.478Z,78.39
2022-11-28T05:35:24.374Z,78.33
2022-11-28T05:37:52.162Z,78.07
2022-11-28T05:40:20.221Z,77.42
2022-11-28T05:42:49.382Z,77.56
2022-11-28T05:45:17.268Z,77.23
2022-11-28T05:47:45.164Z,77.30
2022-11-28T05:50:13.160Z,77.28
2022-11-28T05:52:41.010Z,76.95
2022-11-28T05:55:09.736Z,77.08
2022-11-28T05:57:37.572Z,77.56
2022-11-28T06:00:08.308Z,77.06
2022-11-28T06:02:42.086Z,77.24
2022-11-28T06:05:34.673Z,77.29
2022-11-28T06:07:58.131Z,77.36
2022-11-28T06:10:26.069Z,77.29
2022-11-28T06:12:53.932Z,77.19
2022-11-28T06:15:23.146Z,77.40
2022-11-28T06:17:51.019Z,77.28
2022-11-28T06:20:19.054Z,77.30
2022-11-28T06:22:47.593Z,77.07
2022-11-28T06:25:15.470Z,77.47
2022-11-28T06:27:43.885Z,77.28
2022-11-28T06:30:12.039Z,77.46
2022-11-28T06:32:41.184Z,77.43
2022-11-28T06:35:09.467Z,77.30
2022-11-28T06:37:37.281Z,76.99
2022-11-28T06:40:06.151Z,76.98
2022-11-28T06:42:35.778Z,76.80
2022-11-28T06:45:04.584Z,76.32
2022-11-28T06:47:32.784Z,76.89
2022-11-28T06:50:02.126Z,76.80
2022-11-28T06:52:30.138Z,76.52
2022-11-28T06:54:58.010Z,76.52
2022-11-28T06:57:25.805Z,77.01
2022-11-28T06:59:53.670Z,76.59
2022-11-28T07:02:22.853Z,76.54
2022-11-28T07:04:50.803Z,76.39
2022-11-28T07:07:20.064Z,76.14
2022-11-28T07:09:48.053Z,76.31
2022-11-28T07:12:15.860Z,75.88
2022-11-28T07:14:43.656Z,76.17
2022-11-28T07:17:11.560Z,75.71
2022-11-28T07:19:39.631Z,75.70
2022-11-28T07:22:07.490Z,75.85
2022-11-28T07:24:36.688Z,76.03
2022-11-28T07:27:04.623Z,75.31
2022-11-28T07:29:36.469Z,75.20
2022-11-28T07:32:05.803Z,75.41
2022-11-28T07:34:33.685Z,75.35
2022-11-28T07:37:01.529Z,75.17
2022-11-28T07:39:29.406Z,74.58
2022-11-28T07:41:58.559Z,74.95
2022-11-28T07:44:26.347Z,74.22
2022-11-28T07:46:54.317Z,74.58
2022-11-28T07:49:22.242Z,74.51
2022-11-28T07:51:50.343Z,74.05
2022-11-28T07:54:18.216Z,74.19
2022-11-28T07:59:35.654Z,73.39
2022-11-28T08:02:03.734Z,73.50
2022-11-28T08:04:31.836Z,72.83
2022-11-28T08:06:59.745Z,72.59
2022-11-28T08:09:27.681Z,72.56
2022-11-28T08:11:55.639Z,73.65
2022-11-28T08:14:23.500Z,72.78
2022-11-28T08:16:52.802Z,73.15
2022-11-28T08:19:24.632Z,73.59
2022-11-28T08:21:52.880Z,73.09
2022-11-28T08:24:20.675Z,72.48
2022-11-28T08:26:48.469Z,72.67
2022-11-28T08:29:16.337Z,72.54
2022-11-28T08:31:44.192Z,72.79
2022-11-28T08:34:13.334Z,72.70
2022-11-28T08:36:43.348Z,72.93
2022-11-28T08:39:27.828Z,72.25
2022-11-28T08:41:58.914Z,72.62
2022-11-28T08:44:30.268Z,72.12
2022-11-28T08:46:58.552Z,71.85
2022-11-28T08:49:27.688Z,72.36
2022-11-28T08:51:55.566Z,71.45
2022-11-28T08:54:23.446Z,71.75
2022-11-28T08:56:51.335Z,71.28
2022-11-28T08:59:19.174Z,71.48
2022-11-28T09:01:47.080Z,71.55
2022-11-28T09:04:15.079Z,71.18
2022-11-28T09:06:44.328Z,70.81
2022-11-28T09:09:12.517Z,70.64
2022-11-28T09:11:40.593Z,70.68
2022-11-28T09:14:08.774Z,70.70
2022-11-28T09:16:36.635Z,70.40
2022-11-28T09:19:05.123Z,70.56
2022-11-28T09:21:33.201Z,71.16
2022-11-28T09:24:02.407Z,70.52
2022-11-28T09:26:30.947Z,70.13
2022-11-28T09:28:58.790Z,70.13
2022-11-28T09:31:26.645Z,69.85
2022-11-28T09:33:54.975Z,69.84
2022-11-28T09:36:24.780Z,68.47
2022-11-28T09:38:52.811Z,68.23
2022-11-28T09:41:34.719Z,68.45
2022-11-28T09:44:08.000Z,67.06
2022-11-28T09:46:38.304Z,66.51
2022-11-28T09:49:20.852Z,65.92
2022-11-28T09:51:53.977Z,65.73
2022-11-28T09:54:28.955Z,66.00
2022-11-28T09:56:59.964Z,65.57
2022-11-28T09:59:30.080Z,64.98
2022-11-28T10:02:05.770Z,64.89
2022-11-28T10:04:42.395Z,65.49
2022-11-28T10:07:20.605Z,65.37
2022-11-28T10:09:58.147Z,65.68
2022-11-28T10:12:44.503Z,65.77
2022-11-28T10:15:25.674Z,66.14
2022-11-28T10:18:08.150Z,66.09
2022-11-28T10:20:40.527Z,65.42
2022-11-28T10:23:15.863Z,66.01
2022-11-28T10:25:49.474Z,66.41
2022-11-28T10:28:23.192Z,66.85
2022-11-28T10:30:58.223Z,67.93
2022-11-28T10:33:30.998Z,68.09
2022-11-28T10:36:01.490Z,67.51
2022-11-28T10:38:34.110Z,67.37
2022-11-28T10:41:08.787Z,67.68
2022-11-28T10:43:45.070Z,67.85
2022-11-28T10:46:31.747Z,67.24
2022-11-28T10:49:09.076Z,67.44
2022-11-28T10:51:49.950Z,67.35
2022-11-28T10:54:26.582Z,67.26
2022-11-28T10:57:02.165Z,66.47
2022-11-28T10:59:42.637Z,67.12
2022-11-28T11:02:21.621Z,66.61
2022-11-28T11:04:49.546Z,67.37
2022-11-28T11:07:27.987Z,67.37
2022-11-28T11:09:59.462Z,68.38
2022-11-28T11:12:31.530Z,68.71
2022-11-28T11:15:15.321Z,68.23
2022-11-28T11:17:43.110Z,68.30
2022-11-28T11:20:38.139Z,68.17
2022-11-28T11:23:16.562Z,69.34
2022-11-28T11:25:55.562Z,69.55
2022-11-28T11:28:41.612Z,68.97
2022-11-28T11:31:20.695Z,69.68
2022-11-28T11:33:51.459Z,69.37
2022-11-28T11:36:28.776Z,69.60
2022-11-28T11:39:08.187Z,69.06
2022-11-28T11:41:36.042Z,69.71
2022-11-28T11:44:29.596Z,69.73
2022-11-28T11:47:01.815Z,69.46
2022-11-28T11:49:32.116Z,69.57
2022-11-28T11:52:02.106Z,69.43
2022-11-28T11:54:30.495Z,69.53
2022-11-28T11:57:30.582Z,68.80
2022-11-28T11:59:51.699Z,69.01
2022-11-28T12:02:26.522Z,69.26
2022-11-28T12:05:00.487Z,68.59
2022-11-28T12:07:34.339Z,68.83
2022-11-28T12:10:04.752Z,68.03
2022-11-28T12:12:37.320Z,69.07
2022-11-28T12:15:13.020Z,68.82
2022-11-28T12:17:58.577Z,68.37
2022-11-28T12:20:42.906Z,67.63
2022-11-28T12:23:30.628Z,68.24
2022-11-28T12:26:07.213Z,67.64
2022-11-28T12:28:48.728Z,67.29
2022-11-28T12:31:27.253Z,67.15
2022-11-28T12:34:07.571Z,66.53
2022-11-28T12:36:42.497Z,67.37
2022-11-28T12:39:18.819Z,66.28
2022-11-28T12:42:20.112Z,66.99
2022-11-28T12:44:59.869Z,66.97
2022-11-28T12:47:39.432Z,66.66
2022-11-28T12:50:21.618Z,66.99
2022-11-28T12:53:00.891Z,66.93
2022-11-28T12:55:36.410Z,66.83
2022-11-28T12:58:12.737Z,66.91
2022-11-28T13:00:51.102Z,65.92
2022-11-28T13:03:34.255Z,67.18
2022-11-28T13:06:16.131Z,66.97
2022-11-28T13:09:15.305Z,66.99
2022-11-28T13:11:58.071Z,66.85
2022-11-28T13:14:36.859Z,66.67
2022-11-28T13:17:17.341Z,67.33
2022-11-28T13:19:51.205Z,66.47
2022-11-28T13:22:25.189Z,66.52
2022-11-28T13:25:01.589Z,67.34
2022-11-28T13:27:38.528Z,66.54
2022-11-28T13:30:21.100Z,66.55
2022-11-28T13:32:55.217Z,66.56
2022-11-28T13:35:24.369Z,66.54
2022-11-28T13:40:52.904Z,66.31
2022-11-28T13:43:28.617Z,66.28
2022-11-28T13:45:57.191Z,66.93
2022-11-28T13:49:13.757Z,66.45
2022-11-28T13:51:42.992Z,66.32
2022-11-28T13:54:37.105Z,66.58
2022-11-28T13:57:15.360Z,66.02
2022-11-28T13:59:49.855Z,65.69
2022-11-28T14:02:23.988Z,66.34
2022-11-28T14:04:51.946Z,66.19
2022-11-28T14:07:30.729Z,66.39
2022-11-28T14:10:26.769Z,65.75
2022-11-28T14:13:22.956Z,65.64
2022-11-28T14:16:07.778Z,66.61
2022-11-28T14:18:58.437Z,66.64
2022-11-28T14:21:40.067Z,65.81
2022-11-28T14:24:17.282Z,66.02
2022-11-28T14:26:45.598Z,66.20
2022-11-28T14:29:24.131Z,65.98
2022-11-28T14:32:21.652Z,66.79
2022-11-28T14:34:45.521Z,66.80
2022-11-28T14:37:57.664Z,67.20
2022-11-28T14:41:06.123Z,66.83
2022-11-28T14:43:36.617Z,66.69
2022-11-28T14:46:33.888Z,67.19
2022-11-28T14:49:17.672Z,66.63
2022-11-28T14:54:57.907Z,67.23
2022-11-28T14:57:28.899Z,67.11
2022-11-28T14:59:59.678Z,67.17
2022-11-28T15:02:44.924Z,67.19
2022-11-28T15:05:34.588Z,67.15
2022-11-28T15:08:47.995Z,67.86
2022-11-28T15:11:24.052Z,67.04
2022-11-28T15:14:09.835Z,67.71
2022-11-28T15:16:48.250Z,67.37
2022-11-28T15:19:26.500Z,67.81
2022-11-28T15:21:56.198Z,67.40
2022-11-28T15:24:30.436Z,66.90
2022-11-28T15:27:17.286Z,67.45
2022-11-28T15:29:54.677Z,67.33
2022-11-28T15:32:23.642Z,67.54
2022-11-28T15:35:00.911Z,67.33
2022-11-28T15:37:32.056Z,67.51
2022-11-28T15:40:03.412Z,67.13
2022-11-28T15:42:33.903Z,66.64
2022-11-28T15:45:09.521Z,67.07
2022-11-28T15:47:38.916Z,67.04
2022-11-28T15:50:18.198Z,66.87
2022-11-28T15:52:54.686Z,67.25
2022-11-28T15:55:23.054Z,66.81
2022-11-28T15:57:51.050Z,66.56
2022-11-28T16:00:21.867Z,66.90
2022-11-28T16:02:50.258Z,66.64
2022-11-28T16:05:22.236Z,66.78
2022-11-28T16:07:51.959Z,67.24
2022-11-28T16:10:25.183Z,67.32
2022-11-28T16:13:01.758Z,67.38
2022-11-28T16:15:30.756Z,67.44
2022-11-28T16:17:58.797Z,66.48
2022-11-28T16:20:30.663Z,66.42
2022-11-28T16:23:02.541Z,66.97
2022-11-28T16:25:31.136Z,66.89
2022-11-28T16:27:59.933Z,67.12
2022-11-28T16:30:33.499Z,67.17
2022-11-28T16:33:01.983Z,66.72
2022-11-28T16:35:36.072Z,66.66
2022-11-28T16:38:15.231Z,67.31
2022-11-28T16:40:43.804Z,67.19
2022-11-28T16:43:21.294Z,67.17
2022-11-28T16:45:59.957Z,66.90
2022-11-28T16:48:30.100Z,67.60
2022-11-28T16:51:36.684Z,66.82
2022-11-28T16:54:32.389Z,66.86
2022-11-28T16:57:11.869Z,67.10
2022-11-28T16:59:39.984Z,66.64
2022-11-28T17:02:15.361Z,67.01
2022-11-28T17:04:43.259Z,66.69
2022-11-28T17:07:14.601Z,67.12
2022-11-28T17:09:42.928Z,66.61
2022-11-28T17:12:17.844Z,66.88
2022-11-28T17:14:45.720Z,66.68
2022-11-28T17:17:14.691Z,67.29
2022-11-28T17:19:42.911Z,66.56
2022-11-28T17:22:15.440Z,67.46
2022-11-28T17:24:43.682Z,66.57
2022-11-28T17:27:13.003Z,66.50
2022-11-28T17:29:41.080Z,65.93
2022-11-28T17:32:13.437Z,66.50
2022-11-28T17:34:42.545Z,66.39
2022-11-28T17:37:11.032Z,66.48
2022-11-28T17:40:00.273Z,66.54
2022-11-28T17:42:28.199Z,66.41
2022-11-28T17:44:56.171Z,66.52
2022-11-28T17:47:26.804Z,66.85
2022-11-28T17:49:55.493Z,67.05
2022-11-28T17:52:30.020Z,66.68
2022-11-28T17:55:07.086Z,66.65
2022-11-28T17:57:36.091Z,66.58
2022-11-28T18:00:06.562Z,66.81
2022-11-28T18:02:41.841Z,66.80
2022-11-28T18:05:10.726Z,66.74
2022-11-28T18:07:40.243Z,66.90
2022-11-28T18:10:13.486Z,66.57
2022-11-28T18:12:41.595Z,66.09
2022-11-28T18:15:11.158Z,66.60
2022-11-28T18:17:39.388Z,66.28
2022-11-28T18:20:09.410Z,66.59
2022-11-28T18:22:37.299Z,66.28
2022-11-28T18:25:07.927Z,66.92
2022-11-28T18:27:37.212Z,66.67
2022-11-28T18:30:06.018Z,66.14
2022-11-28T18:32:33.982Z,66.03
2022-11-28T18:35:01.914Z,66.65
2022-11-28T18:37:29.915Z,66.60
2022-11-28T18:39:58.321Z,66.16
2022-11-28T18:42:26.501Z,66.57
2022-11-28T18:44:55.982Z,66.43
2022-11-28T18:47:24.841Z,66.52
2022-11-28T18:49:53.445Z,66.57
2022-11-28T18:52:21.424Z,66.31
2022-11-28T18:54:49.254Z,66.28
2022-11-28T18:57:18.319Z,66.45
2022-11-28T18:59:52.885Z,66.59
2022-11-28T19:02:24.131Z,66.32
2022-11-28T19:04:52.745Z,66.14
2022-11-28T19:07:20.920Z,66.45
2022-11-28T19:09:48.812Z,66.04
2022-11-28T19:12:16.811Z,65.81
2022-11-28T19:14:44.766Z,66.55
2022-11-28T19:17:13.036Z,66.90
2022-11-28T19:19:44.275Z,66.72
2022-11-28T19:22:12.502Z,66.68
2022-11-28T19:24:40.369Z,66.66
2022-11-28T19:27:13.876Z,66.69
2022-11-28T19:29:43.115Z,66.86
2022-11-28T19:32:11.395Z,67.07
2022-11-28T19:34:39.526Z,67.08
2022-11-28T19:37:08.802Z,66.85
2022-11-28T19:39:36.928Z,66.84
2022-11-28T19:42:04.983Z,66.90
2022-11-28T19:44:33.099Z,66.62
2022-11-28T19:47:01.908Z,66.90
2022-11-28T19:49:29.944Z,66.54
2022-11-28T19:51:58.431Z,66.18
2022-11-28T19:54:28.226Z,66.42
2022-11-28T19:56:57.055Z,66.48
2022-11-28T19:59:25.110Z,66.58
2022-11-28T20:01:53.821Z,66.39
2022-11-28T20:04:23.056Z,66.54
2022-11-28T20:06:50.874Z,66.55
2022-11-28T20:09:18.938Z,66.15
2022-11-28T20:11:49.570Z,66.10
2022-11-28T20:14:19.192Z,65.84
2022-11-28T20:16:47.892Z,65.74
2022-11-28T20:19:17.807Z,65.79
2022-11-28T20:21:46.402Z,65.67
2022-11-28T20:24:16.103Z,66.17
2022-11-28T20:26:46.289Z,65.81
2022-11-28T20:29:17.558Z,65.93
2022-11-28T20:31:48.214Z,65.76
2022-11-28T20:34:18.433Z,65.49
2022-11-28T20:36:52.163Z,65.43
2022-11-28T20:39:20.075Z,65.87
2022-11-28T20:41:48.015Z,65.68
2022-11-28T20:44:17.688Z,65.69
2022-11-28T20:46:46.379Z,65.88
2022-11-28T20:49:15.675Z,65.94
2022-11-28T20:51:43.713Z,65.18
2022-11-28T20:54:13.419Z,65.50
2022-11-28T20:57:13.007Z,65.46
2022-11-28T20:59:32.578Z,65.55
2022-11-28T21:02:00.442Z,65.51
2022-11-28T21:04:28.356Z,65.61
2022-11-28T21:06:56.237Z,65.70
2022-11-28T21:09:24.041Z,65.48
2022-11-28T21:11:59.578Z,65.47
2022-11-28T21:14:28.669Z,65.57
2022-11-28T21:16:58.941Z,65.47
2022-11-28T21:19:27.207Z,65.60
2022-11-28T21:21:55.151Z,66.06
2022-11-28T21:24:23.066Z,66.22
2022-11-28T21:26:53.830Z,66.16
2022-11-28T21:29:25.424Z,66.21
2022-11-28T21:31:53.920Z,66.11
2022-11-28T21:34:23.283Z,65.97
2022-11-28T21:36:51.294Z,66.09
2022-11-28T21:39:21.911Z,66.44
2022-11-28T21:41:50.843Z,65.88
2022-11-28T21:44:18.849Z,66.27
2022-11-28T21:46:47.827Z,65.86
2022-11-28T21:49:15.942Z,66.40
2022-11-28T21:51:45.416Z,66.15
2022-11-28T21:54:13.909Z,66.62
2022-11-28T21:56:41.937Z,66.41
2022-11-28T21:59:09.986Z,66.37
2022-11-28T22:01:38.906Z,66.27
2022-11-28T22:04:07.218Z,66.18
2022-11-28T22:06:35.318Z,67.05
2022-11-28T22:09:09.495Z,66.24
2022-11-28T22:11:39.322Z,66.27
2022-11-28T22:14:07.314Z,66.98
2022-11-28T22:16:35.209Z,66.41
2022-11-28T22:19:04.160Z,66.77
2022-11-28T22:24:22.742Z,66.16
2022-11-28T22:26:51.076Z,66.57
2022-11-28T22:29:19.377Z,66.65
2022-11-28T22:31:47.758Z,66.60
2022-11-28T22:34:15.686Z,66.65
2022-11-28T22:36:44.128Z,66.85
2022-11-28T22:39:12.350Z,66.70
2022-11-28T22:41:41.703Z,66.90
2022-11-28T22:44:11.303Z,67.58
2022-11-28T22:46:39.564Z,67.34
2022-11-28T22:49:11.160Z,67.37
2022-11-28T22:51:40.317Z,67.51
2022-11-28T22:54:09.120Z,66.91
2022-11-28T22:56:37.398Z,67.33
2022-11-28T22:59:10.541Z,66.72
2022-11-28T23:01:38.755Z,66.79
2022-11-28T23:04:06.931Z,66.50
2022-11-28T23:06:36.428Z,66.72
2022-11-28T23:09:08.473Z,66.27
2022-11-28T23:11:38.752Z,66.24
2022-11-28T23:14:08.486Z,66.27
2022-11-28T23:16:38.908Z,66.43
2022-11-28T23:19:10.597Z,66.90
2022-11-28T23:21:40.752Z,66.18
2022-11-28T23:24:13.040Z,66.73
2022-11-28T23:26:40.954Z,66.15
2022-11-28T23:29:10.641Z,66.38
2022-11-28T23:31:40.644Z,66.55
2022-11-28T23:34:09.656Z,66.51
2022-11-28T23:36:42.712Z,66.38
2022-11-28T23:39:14.269Z,66.12
2022-11-28T23:41:42.609Z,66.49
2022-11-28T23:44:13.100Z,66.42
2022-11-28T23:46:42.113Z,66.33
2022-11-28T23:49:10.724Z,66.13
2022-11-28T23:51:39.993Z,66.34
2022-11-28T23:54:08.429Z,65.97
2022-11-28T23:56:37.879Z,65.83
2022-11-28T23:59:08.559Z,65.93
